sensor_id;sensor_type;location;lat;lon;timestamp;pressure;altitude;pressure_sealevel;temperature;humidity
54666;BME280;40566;50.006;36.180;2023-03-19T00:04:35;100559.25;;;3.63;65.77
54666;BME280;40566;50.006;36.180;2023-03-19T00:09:35;100564.34;;;3.60;65.78
54666;BME280;40566;50.006;36.180;2023-03-19T00:14:37;100553.22;;;3.59;65.77
54666;BME280;40566;50.006;36.180;2023-03-19T00:19:37;100560.94;;;3.61;65.87
54666;BME280;40566;50.006;36.180;2023-03-19T00:24:38;100562.50;;;3.51;65.98
54666;BME280;40566;50.006;36.180;2023-03-19T00:29:39;100558.97;;;3.41;66.13
54666;BME280;40566;50.006;36.180;2023-03-19T00:34:39;100559.00;;;3.44;66.09
54666;BME280;40566;50.006;36.180;2023-03-19T00:39:40;100552.16;;;3.43;66.10
54666;BME280;40566;50.006;36.180;2023-03-19T00:44:41;100548.63;;;3.32;66.38
54666;BME280;40566;50.006;36.180;2023-03-19T00:49:41;100555.44;;;3.33;66.37
54666;BME280;40566;50.006;36.180;2023-03-19T00:54:42;100543.38;;;3.26;66.28
54666;BME280;40566;50.006;36.180;2023-03-19T00:59:42;100544.22;;;3.23;66.57
54666;BME280;40566;50.006;36.180;2023-03-19T01:04:43;100552.84;;;3.30;66.33
54666;BME280;40566;50.006;36.180;2023-03-19T01:09:43;100546.97;;;3.37;66.22
54666;BME280;40566;50.006;36.180;2023-03-19T01:14:44;100544.38;;;3.35;66.21
54666;BME280;40566;50.006;36.180;2023-03-19T01:19:45;100542.72;;;3.36;66.46
54666;BME280;40566;50.006;36.180;2023-03-19T01:24:45;100544.38;;;3.34;66.48
54666;BME280;40566;50.006;36.180;2023-03-19T01:29:46;100542.56;;;3.27;66.48
54666;BME280;40566;50.006;36.180;2023-03-19T01:34:47;100536.66;;;3.31;66.47
54666;BME280;40566;50.006;36.180;2023-03-19T01:39:48;100528.16;;;3.33;66.49
54666;BME280;40566;50.006;36.180;2023-03-19T01:44:48;100535.88;;;3.36;66.35
54666;BME280;40566;50.006;36.180;2023-03-19T01:49:53;100527.22;;;3.27;66.66
54666;BME280;40566;50.006;36.180;2023-03-19T01:54:55;100527.28;;;3.30;66.61
54666;BME280;40566;50.006;36.180;2023-03-19T01:59:59;100531.47;;;3.28;66.65
54666;BME280;40566;50.006;36.180;2023-03-19T02:05:12;100516.03;;;3.18;66.78
54666;BME280;40566;50.006;36.180;2023-03-19T02:10:25;100523.75;;;3.23;66.77
54666;BME280;40566;50.006;36.180;2023-03-19T02:15:26;100525.50;;;3.24;66.57
54666;BME280;40566;50.006;36.180;2023-03-19T02:20:36;100528.84;;;3.20;66.88
54666;BME280;40566;50.006;36.180;2023-03-19T02:30:44;100534.00;;;3.25;66.67
54666;BME280;40566;50.006;36.180;2023-03-19T02:35:47;100531.41;;;3.22;66.59
54666;BME280;40566;50.006;36.180;2023-03-19T02:41:01;100526.34;;;3.25;66.61
54666;BME280;40566;50.006;36.180;2023-03-19T02:46:06;100521.91;;;3.13;67.29
54666;BME280;40566;50.006;36.180;2023-03-19T02:51:07;100520.09;;;3.04;67.31
54666;BME280;40566;50.006;36.180;2023-03-19T02:56:08;100527.75;;;3.04;67.14
54666;BME280;40566;50.006;36.180;2023-03-19T03:01:08;100531.09;;;3.02;67.34
54666;BME280;40566;50.006;36.180;2023-03-19T03:06:09;100531.13;;;3.03;67.38
54666;BME280;40566;50.006;36.180;2023-03-19T03:11:09;100531.09;;;3.02;67.42
54666;BME280;40566;50.006;36.180;2023-03-19T03:16:10;100536.31;;;3.08;67.20
54666;BME280;40566;50.006;36.180;2023-03-19T03:21:11;100535.38;;;3.03;67.26
54666;BME280;40566;50.006;36.180;2023-03-19T03:26:12;100525.94;;;3.00;67.45
54666;BME280;40566;50.006;36.180;2023-03-19T03:31:13;100525.19;;;3.04;67.36
54666;BME280;40566;50.006;36.180;2023-03-19T03:36:14;100523.53;;;3.06;67.47
54666;BME280;40566;50.006;36.180;2023-03-19T03:41:14;100520.91;;;3.03;67.32
54666;BME280;40566;50.006;36.180;2023-03-19T03:46:15;100522.56;;;3.01;67.49
54666;BME280;40566;50.006;36.180;2023-03-19T03:51:18;100520.81;;;2.97;67.48
54666;BME280;40566;50.006;36.180;2023-03-19T03:56:19;100518.97;;;2.90;67.72
54666;BME280;40566;50.006;36.180;2023-03-19T04:01:19;100517.28;;;2.89;67.69
54666;BME280;40566;50.006;36.180;2023-03-19T04:06:22;100510.38;;;2.83;67.82
54666;BME280;40566;50.006;36.180;2023-03-19T04:11:23;100515.44;;;2.82;67.85
54666;BME280;40566;50.006;36.180;2023-03-19T04:16:24;100513.06;;;2.91;67.90
54666;BME280;40566;50.006;36.180;2023-03-19T04:21:25;100514.03;;;2.99;67.54
54666;BME280;40566;50.006;36.180;2023-03-19T04:26:25;100513.34;;;3.11;67.31
54666;BME280;40566;50.006;36.180;2023-03-19T04:31:26;100514.25;;;3.14;67.31
54666;BME280;40566;50.006;36.180;2023-03-19T04:36:27;100516.72;;;3.08;67.57
54666;BME280;40566;50.006;36.180;2023-03-19T04:41:27;100521.03;;;3.11;67.43
54666;BME280;40566;50.006;36.180;2023-03-19T04:46:29;100525.41;;;3.20;67.32
54666;BME280;40566;50.006;36.180;2023-03-19T04:51:29;100523.78;;;3.25;67.15
54666;BME280;40566;50.006;36.180;2023-03-19T04:56:30;100522.09;;;3.27;67.47
54666;BME280;40566;50.006;36.180;2023-03-19T05:01:31;100525.66;;;3.36;67.18
54666;BME280;40566;50.006;36.180;2023-03-19T05:06:32;100515.50;;;3.43;67.11
54666;BME280;40566;50.006;36.180;2023-03-19T05:11:32;100511.31;;;3.49;67.02
54666;BME280;40566;50.006;36.180;2023-03-19T05:16:33;100508.72;;;3.45;67.34
54666;BME280;40566;50.006;36.180;2023-03-19T05:21:36;100507.00;;;3.44;67.42
54666;BME280;40566;50.006;36.180;2023-03-19T05:26:37;100522.41;;;3.48;67.32
54666;BME280;40566;50.006;36.180;2023-03-19T05:31:37;100514.94;;;3.64;66.97
54666;BME280;40566;50.006;36.180;2023-03-19T05:36:38;100523.50;;;3.67;66.95
54666;BME280;40566;50.006;36.180;2023-03-19T05:41:39;100517.56;;;3.68;67.08
54666;BME280;40566;50.006;36.180;2023-03-19T05:46:39;100525.28;;;3.73;66.90
54666;BME280;40566;50.006;36.180;2023-03-19T05:51:40;100522.69;;;3.70;67.07
54666;BME280;40566;50.006;36.180;2023-03-19T05:56:41;100517.75;;;3.84;66.97
54666;BME280;40566;50.006;36.180;2023-03-19T06:01:42;100516.91;;;3.83;66.78
54666;BME280;40566;50.006;36.180;2023-03-19T06:06:42;100511.00;;;3.90;66.84
54666;BME280;40566;50.006;36.180;2023-03-19T06:11:43;100516.22;;;4.00;66.60
54666;BME280;40566;50.006;36.180;2023-03-19T06:16:43;100500.06;;;4.04;66.53
54666;BME280;40566;50.006;36.180;2023-03-19T06:21:44;100507.06;;;4.20;66.21
54666;BME280;40566;50.006;36.180;2023-03-19T06:26:44;100505.47;;;4.31;66.19
54666;BME280;40566;50.006;36.180;2023-03-19T06:31:45;100492.69;;;4.33;66.13
54666;BME280;40566;50.006;36.180;2023-03-19T06:36:46;100496.91;;;4.32;66.23
54666;BME280;40566;50.006;36.180;2023-03-19T06:41:46;100499.59;;;4.43;66.26
54666;BME280;40566;50.006;36.180;2023-03-19T06:46:47;100500.38;;;4.36;66.44
54666;BME280;40566;50.006;36.180;2023-03-19T06:51:48;100493.59;;;4.40;66.44
54666;BME280;40566;50.006;36.180;2023-03-19T06:56:48;100491.81;;;4.32;66.62
54666;BME280;40566;50.006;36.180;2023-03-19T07:01:49;100500.41;;;4.37;66.52
54666;BME280;40566;50.006;36.180;2023-03-19T07:06:50;100497.19;;;4.59;66.16
54666;BME280;40566;50.006;36.180;2023-03-19T07:11:51;100506.72;;;4.76;65.41
54666;BME280;40566;50.006;36.180;2023-03-19T07:16:52;100502.34;;;4.63;65.95
54666;BME280;40566;50.006;36.180;2023-03-19T07:21:54;100502.34;;;4.63;66.04
54666;BME280;40566;50.006;36.180;2023-03-19T07:26:54;100505.06;;;4.83;65.56
54666;BME280;40566;50.006;36.180;2023-03-19T07:31:56;100499.94;;;4.83;65.64
54666;BME280;40566;50.006;36.180;2023-03-19T07:36:56;100498.41;;;5.04;65.12
54666;BME280;40566;50.006;36.180;2023-03-19T07:41:57;100497.56;;;5.09;65.11
54666;BME280;40566;50.006;36.180;2023-03-19T07:46:58;100506.25;;;5.30;64.62
54666;BME280;40566;50.006;36.180;2023-03-19T07:51:58;100490.97;;;5.51;64.28
54666;BME280;40566;50.006;36.180;2023-03-19T07:56:59;100485.91;;;5.64;64.12
54666;BME280;40566;50.006;36.180;2023-03-19T08:02:00;100480.03;;;5.92;63.50
54666;BME280;40566;50.006;36.180;2023-03-19T08:07:00;100482.66;;;6.11;63.21
54666;BME280;40566;50.006;36.180;2023-03-19T08:12:01;100483.50;;;6.10;63.53
54666;BME280;40566;50.006;36.180;2023-03-19T08:17:01;100476.72;;;6.30;62.93
54666;BME280;40566;50.006;36.180;2023-03-19T08:22:02;100480.97;;;6.38;62.76
54666;BME280;40566;50.006;36.180;2023-03-19T08:27:03;100481.00;;;6.65;62.25
54666;BME280;40566;50.006;36.180;2023-03-19T08:32:04;100470.69;;;6.93;61.62
54666;BME280;40566;50.006;36.180;2023-03-19T08:37:04;100468.13;;;6.98;61.69
54666;BME280;40566;50.006;36.180;2023-03-19T08:42:06;100462.16;;;6.97;61.71
54666;BME280;40566;50.006;36.180;2023-03-19T08:47:06;100466.44;;;6.87;62.02
54666;BME280;40566;50.006;36.180;2023-03-19T08:52:07;100465.59;;;6.82;62.18
54666;BME280;40566;50.006;36.180;2023-03-19T08:57:08;100469.00;;;6.83;62.09
54666;BME280;40566;50.006;36.180;2023-03-19T09:02:10;100463.84;;;7.01;61.43
54666;BME280;40566;50.006;36.180;2023-03-19T09:07:12;100459.53;;;7.08;61.24
54666;BME280;40566;50.006;36.180;2023-03-19T09:12:16;100460.41;;;6.94;61.63
54666;BME280;40566;50.006;36.180;2023-03-19T09:17:17;100456.09;;;7.09;61.06
54666;BME280;40566;50.006;36.180;2023-03-19T09:22:17;100459.53;;;7.17;60.99
54666;BME280;40566;50.006;36.180;2023-03-19T09:27:18;100452.66;;;7.24;60.79
54666;BME280;40566;50.006;36.180;2023-03-19T09:32:19;100444.88;;;7.39;60.35
54666;BME280;40566;50.006;36.180;2023-03-19T09:37:20;100437.94;;;7.53;60.19
54666;BME280;40566;50.006;36.180;2023-03-19T09:47:32;100442.09;;;7.88;59.32
54666;BME280;40566;50.006;36.180;2023-03-19T09:52:57;100428.47;;;7.60;59.91
54666;BME280;40566;50.006;36.180;2023-03-19T09:58:01;100430.16;;;7.67;59.71
54666;BME280;40566;50.006;36.180;2023-03-19T10:03:04;100441.31;;;7.68;59.71
54666;BME280;40566;50.006;36.180;2023-03-19T10:08:24;100426.69;;;7.81;59.25
54666;BME280;40566;50.006;36.180;2023-03-19T10:18:43;100416.34;;;7.85;59.13
54666;BME280;40566;50.006;36.180;2023-03-19T10:29:09;100410.38;;;7.77;59.02
54666;BME280;40566;50.006;36.180;2023-03-19T10:39:27;100399.31;;;7.61;59.27
54666;BME280;40566;50.006;36.180;2023-03-19T10:44:31;100395.06;;;7.49;59.50
54666;BME280;40566;50.006;36.180;2023-03-19T10:49:34;100398.50;;;7.53;59.68
54666;BME280;40566;50.006;36.180;2023-03-19T10:54:38;100387.31;;;7.57;59.21
54666;BME280;40566;50.006;36.180;2023-03-19T10:59:39;100394.13;;;7.67;58.98
54666;BME280;40566;50.006;36.180;2023-03-19T11:04:40;100395.88;;;7.58;59.31
54666;BME280;40566;50.006;36.180;2023-03-19T11:09:43;100382.13;;;7.60;59.17
54666;BME280;40566;50.006;36.180;2023-03-19T11:14:47;100379.63;;;7.52;59.32
54666;BME280;40566;50.006;36.180;2023-03-19T11:20:26;100386.44;;;7.61;59.16
54666;BME280;40566;50.006;36.180;2023-03-19T11:31:19;100370.09;;;7.68;58.77
54666;BME280;40566;50.006;36.180;2023-03-19T11:36:12;100374.44;;;7.55;59.12
54666;BME280;40566;50.006;36.180;2023-03-19T11:47:12;100358.97;;;7.62;59.02
54666;BME280;40566;50.006;36.180;2023-03-19T11:52:21;100370.91;;;7.72;58.93
54666;BME280;40566;50.006;36.180;2023-03-19T11:57:55;100357.06;;;7.91;58.57
54666;BME280;40566;50.006;36.180;2023-03-19T12:08:32;100356.16;;;7.97;58.41
54666;BME280;40566;50.006;36.180;2023-03-19T12:13:59;100352.81;;;7.84;58.71
54666;BME280;40566;50.006;36.180;2023-03-19T12:39:53;100329.59;;;7.89;58.38
54666;BME280;40566;50.006;36.180;2023-03-19T12:44:58;100331.25;;;7.99;58.13
54666;BME280;40566;50.006;36.180;2023-03-19T12:50:04;100326.19;;;7.88;58.56
54666;BME280;40566;50.006;36.180;2023-03-19T12:55:17;100317.72;;;7.68;59.11
54666;BME280;40566;50.006;36.180;2023-03-19T13:05:38;100305.81;;;7.51;59.36
54666;BME280;40566;50.006;36.180;2023-03-19T13:10:40;100301.66;;;7.33;59.63
54666;BME280;40566;50.006;36.180;2023-03-19T13:15:46;100293.13;;;7.24;59.94
54666;BME280;40566;50.006;36.180;2023-03-19T13:26:13;100295.81;;;6.99;60.36
54666;BME280;40566;50.006;36.180;2023-03-19T13:31:19;100293.28;;;6.91;60.55
54666;BME280;40566;50.006;36.180;2023-03-19T13:36:21;100287.25;;;6.91;60.56
54666;BME280;40566;50.006;36.180;2023-03-19T13:46:37;100287.38;;;6.60;60.94
54666;BME280;40566;50.006;36.180;2023-03-19T13:51:38;100283.97;;;6.50;61.11
54666;BME280;40566;50.006;36.180;2023-03-19T14:07:25;100284.88;;;6.40;61.25
54666;BME280;40566;50.006;36.180;2023-03-19T14:12:36;100283.16;;;6.25;61.57
54666;BME280;40566;50.006;36.180;2023-03-19T14:28:09;100283.19;;;6.14;61.66
54666;BME280;40566;50.006;36.180;2023-03-19T14:33:24;100276.34;;;6.01;61.80
54666;BME280;40566;50.006;36.180;2023-03-19T14:38:48;100279.78;;;5.95;61.82
54666;BME280;40566;50.006;36.180;2023-03-19T14:54:27;100287.44;;;5.74;62.44
54666;BME280;40566;50.006;36.180;2023-03-19T14:59:36;100278.88;;;5.72;62.52
54666;BME280;40566;50.006;36.180;2023-03-19T15:04:37;100285.72;;;5.70;62.48
54666;BME280;40566;50.006;36.180;2023-03-19T15:09:38;100285.72;;;5.73;62.48
54666;BME280;40566;50.006;36.180;2023-03-19T15:20:02;100279.72;;;5.60;62.86
54666;BME280;40566;50.006;36.180;2023-03-19T15:25:10;100290.88;;;5.67;62.69
54666;BME280;40566;50.006;36.180;2023-03-19T15:30:20;100293.41;;;5.61;62.76
54666;BME280;40566;50.006;36.180;2023-03-19T15:35:23;100290.84;;;5.51;63.17
54666;BME280;40566;50.006;36.180;2023-03-19T15:40:28;100287.41;;;5.49;62.99
54666;BME280;40566;50.006;36.180;2023-03-19T15:45:31;100291.66;;;5.43;63.23
54666;BME280;40566;50.006;36.180;2023-03-19T15:50:36;100293.38;;;5.41;63.21
54666;BME280;40566;50.006;36.180;2023-03-19T15:55:37;100288.25;;;5.47;63.23
54666;BME280;40566;50.006;36.180;2023-03-19T16:00:39;100294.25;;;5.50;63.24
54666;BME280;40566;50.006;36.180;2023-03-19T16:05:40;100294.25;;;5.53;63.04
54666;BME280;40566;50.006;36.180;2023-03-19T16:10:42;100295.13;;;5.54;63.21
54666;BME280;40566;50.006;36.180;2023-03-19T16:15:48;100294.22;;;5.43;63.58
54666;BME280;40566;50.006;36.180;2023-03-19T16:21:00;100288.22;;;5.25;63.73
54666;BME280;40566;50.006;36.180;2023-03-19T16:26:04;100290.81;;;5.36;63.64
54666;BME280;40566;50.006;36.180;2023-03-19T16:31:26;100287.34;;;5.31;63.67
54666;BME280;40566;50.006;36.180;2023-03-19T16:36:30;100296.78;;;5.33;63.82
54666;BME280;40566;50.006;36.180;2023-03-19T16:41:32;100301.03;;;5.27;64.09
54666;BME280;40566;50.006;36.180;2023-03-19T16:46:33;100295.91;;;5.28;63.96
54666;BME280;40566;50.006;36.180;2023-03-19T16:51:34;100288.22;;;5.30;63.92
54666;BME280;40566;50.006;36.180;2023-03-19T16:56:35;100286.50;;;5.29;63.83
54666;BME280;40566;50.006;36.180;2023-03-19T17:01:35;100289.94;;;5.26;64.00
54666;BME280;40566;50.006;36.180;2023-03-19T17:06:36;100287.34;;;5.31;64.05
54666;BME280;40566;50.006;36.180;2023-03-19T17:11:39;100290.78;;;5.25;64.27
54666;BME280;40566;50.006;36.180;2023-03-19T17:16:41;100289.91;;;5.14;64.35
54666;BME280;40566;50.006;36.180;2023-03-19T17:21:51;100283.94;;;5.18;64.31
54666;BME280;40566;50.006;36.180;2023-03-19T17:26:56;100277.94;;;5.21;64.36
54666;BME280;40566;50.006;36.180;2023-03-19T17:31:59;100275.38;;;5.21;64.23
54666;BME280;40566;50.006;36.180;2023-03-19T17:37:05;100274.53;;;5.28;64.00
54666;BME280;40566;50.006;36.180;2023-03-19T17:42:20;100282.22;;;5.26;64.08
54666;BME280;40566;50.006;36.180;2023-03-19T17:47:21;100275.38;;;5.19;64.29
54666;BME280;40566;50.006;36.180;2023-03-19T17:52:21;100284.72;;;5.09;64.48
54666;BME280;40566;50.006;36.180;2023-03-19T17:57:23;100281.31;;;5.03;64.67
54666;BME280;40566;50.006;36.180;2023-03-19T18:02:27;100282.16;;;5.03;64.49
54666;BME280;40566;50.006;36.180;2023-03-19T18:07:29;100284.69;;;4.97;64.43
54666;BME280;40566;50.006;36.180;2023-03-19T18:12:30;100292.41;;;5.00;64.66
54666;BME280;40566;50.006;36.180;2023-03-19T18:17:30;100299.22;;;4.95;64.66
54666;BME280;40566;50.006;36.180;2023-03-19T18:22:32;100294.09;;;4.96;64.62
54666;BME280;40566;50.006;36.180;2023-03-19T18:27:32;100299.22;;;4.92;64.65
54666;BME280;40566;50.006;36.180;2023-03-19T18:32:33;100296.63;;;4.89;64.61
54666;BME280;40566;50.006;36.180;2023-03-19T18:37:33;100297.47;;;4.80;64.86
54666;BME280;40566;50.006;36.180;2023-03-19T18:42:35;100289.72;;;4.66;65.10
54666;BME280;40566;50.006;36.180;2023-03-19T18:47:35;100291.41;;;4.69;65.10
54666;BME280;40566;50.006;36.180;2023-03-19T18:52:36;100280.34;;;4.73;64.84
54666;BME280;40566;50.006;36.180;2023-03-19T18:57:40;100277.72;;;4.65;65.10
54666;BME280;40566;50.006;36.180;2023-03-19T19:02:41;100278.59;;;4.64;65.02
54666;BME280;40566;50.006;36.180;2023-03-19T19:07:44;100276.03;;;4.63;65.02
54666;BME280;40566;50.006;36.180;2023-03-19T19:12:47;100261.44;;;4.51;65.32
54666;BME280;40566;50.006;36.180;2023-03-19T19:17:50;100268.28;;;4.55;65.24
54666;BME280;40566;50.006;36.180;2023-03-19T19:22:52;100270.84;;;4.55;65.32
54666;BME280;40566;50.006;36.180;2023-03-19T19:28:05;100263.19;;;4.56;64.89
54666;BME280;40566;50.006;36.180;2023-03-19T19:33:29;100268.28;;;4.53;65.02
54666;BME280;40566;50.006;36.180;2023-03-19T19:38:33;100267.44;;;4.56;65.04
54666;BME280;40566;50.006;36.180;2023-03-19T19:43:36;100265.69;;;4.52;65.27
54666;BME280;40566;50.006;36.180;2023-03-19T19:48:37;100263.13;;;4.52;65.09
54666;BME280;40566;50.006;36.180;2023-03-19T19:53:41;100258.84;;;4.48;65.33
54666;BME280;40566;50.006;36.180;2023-03-19T19:58:44;100257.16;;;4.47;65.03
54666;BME280;40566;50.006;36.180;2023-03-19T20:03:45;100257.16;;;4.48;65.20
54666;BME280;40566;50.006;36.180;2023-03-19T20:08:53;100255.41;;;4.41;65.49
54666;BME280;40566;50.006;36.180;2023-03-19T20:13:54;100257.09;;;4.37;65.39
54666;BME280;40566;50.006;36.180;2023-03-19T20:18:55;100246.84;;;4.33;65.40
54666;BME280;40566;50.006;36.180;2023-03-19T20:23:56;100250.25;;;4.33;65.62
54666;BME280;40566;50.006;36.180;2023-03-19T20:28:58;100257.06;;;4.36;65.56
54666;BME280;40566;50.006;36.180;2023-03-19T20:33:58;100248.53;;;4.35;65.37
54666;BME280;40566;50.006;36.180;2023-03-19T20:38:59;100247.69;;;4.38;65.40
54666;BME280;40566;50.006;36.180;2023-03-19T20:44:01;100243.47;;;4.39;65.31
54666;BME280;40566;50.006;36.180;2023-03-19T20:49:02;100245.16;;;4.40;65.50
54666;BME280;40566;50.006;36.180;2023-03-19T20:54:03;100246.84;;;4.34;65.65
54666;BME280;40566;50.006;36.180;2023-03-19T20:59:04;100234.88;;;4.33;65.55
54666;BME280;40566;50.006;36.180;2023-03-19T21:04:10;100232.38;;;4.43;65.52
54666;BME280;40566;50.006;36.180;2023-03-19T21:09:16;100234.06;;;4.39;65.57
54666;BME280;40566;50.006;36.180;2023-03-19T21:14:17;100233.16;;;4.31;65.82
54666;BME280;40566;50.006;36.180;2023-03-19T21:19:17;100228.91;;;4.36;65.61
54666;BME280;40566;50.006;36.180;2023-03-19T21:24:19;100230.66;;;4.39;65.49
54666;BME280;40566;50.006;36.180;2023-03-19T21:29:27;100234.06;;;4.41;65.42
54666;BME280;40566;50.006;36.180;2023-03-19T21:34:29;100235.75;;;4.35;65.63
54666;BME280;40566;50.006;36.180;2023-03-19T21:39:29;100232.31;;;4.33;65.79
54666;BME280;40566;50.006;36.180;2023-03-19T21:44:30;100223.75;;;4.28;65.94
54666;BME280;40566;50.006;36.180;2023-03-19T21:49:32;100216.94;;;4.33;65.69
54666;BME280;40566;50.006;36.180;2023-03-19T21:54:33;100218.63;;;4.25;65.92
54666;BME280;40566;50.006;36.180;2023-03-19T21:59:34;100225.47;;;4.29;65.97
54666;BME280;40566;50.006;36.180;2023-03-19T22:04:35;100216.97;;;4.36;65.77
54666;BME280;40566;50.006;36.180;2023-03-19T22:09:35;100211.00;;;4.39;65.81
54666;BME280;40566;50.006;36.180;2023-03-19T22:14:36;100211.81;;;4.30;65.85
54666;BME280;40566;50.006;36.180;2023-03-19T22:19:37;100206.66;;;4.21;66.17
54666;BME280;40566;50.006;36.180;2023-03-19T22:24:38;100207.47;;;4.20;66.08
54666;BME280;40566;50.006;36.180;2023-03-19T22:29:38;100210.88;;;4.17;66.03
54666;BME280;40566;50.006;36.180;2023-03-19T22:34:40;100208.34;;;4.19;66.18
54666;BME280;40566;50.006;36.180;2023-03-19T22:39:40;100198.06;;;4.13;66.07
54666;BME280;40566;50.006;36.180;2023-03-19T22:44:41;100208.22;;;4.01;66.42
54666;BME280;40566;50.006;36.180;2023-03-19T22:49:41;100211.66;;;4.01;66.47
54666;BME280;40566;50.006;36.180;2023-03-19T22:54:44;100211.69;;;4.06;66.18
54666;BME280;40566;50.006;36.180;2023-03-19T22:59:44;100197.19;;;4.08;66.36
54666;BME280;40566;50.006;36.180;2023-03-19T23:04:45;100193.75;;;4.04;66.42
54666;BME280;40566;50.006;36.180;2023-03-19T23:09:46;100188.63;;;4.06;66.23
54666;BME280;40566;50.006;36.180;2023-03-19T23:14:46;100179.28;;;4.11;66.54
54666;BME280;40566;50.006;36.180;2023-03-19T23:19:47;100183.59;;;4.15;66.23
54666;BME280;40566;50.006;36.180;2023-03-19T23:24:48;100181.88;;;4.18;65.95
54666;BME280;40566;50.006;36.180;2023-03-19T23:29:48;100173.38;;;4.24;65.93
54666;BME280;40566;50.006;36.180;2023-03-19T23:34:50;100170.81;;;4.23;65.91
54666;BME280;40566;50.006;36.180;2023-03-19T23:39:50;100163.94;;;4.14;65.90
54666;BME280;40566;50.006;36.180;2023-03-19T23:44:55;100174.19;;;4.17;66.16
54666;BME280;40566;50.006;36.180;2023-03-19T23:49:57;100166.53;;;4.22;66.14
54666;BME280;40566;50.006;36.180;2023-03-19T23:54:57;100169.09;;;4.23;66.12
54666;BME280;40566;50.006;36.180;2023-03-19T23:59:58;100168.28;;;4.27;66.07
